createdAt,value
2018-04-22T00:01:11.981Z,99926
2018-04-22T00:03:40.859Z,99926
2018-04-22T00:06:08.976Z,99916
2018-04-22T00:08:37.088Z,99919
2018-04-22T00:11:05.202Z,99911
2018-04-22T00:13:34.081Z,99913
2018-04-22T00:16:02.221Z,99911
2018-04-22T00:18:30.335Z,99910
2018-04-22T00:20:58.445Z,99906
2018-04-22T00:23:27.336Z,99903
2018-04-22T00:25:55.463Z,99903
2018-04-22T00:28:23.618Z,99903
2018-04-22T00:30:51.733Z,99893
2018-04-22T00:33:19.851Z,99887
2018-04-22T00:35:47.984Z,99890
2018-04-22T00:38:16.093Z,99887
2018-04-22T00:40:44.978Z,99877
2018-04-22T00:43:13.873Z,99877
2018-04-22T00:45:42.008Z,99879
2018-04-22T00:48:10.118Z,99880
2018-04-22T00:50:38.262Z,99871
2018-04-22T00:53:06.385Z,99866
2018-04-22T00:55:34.496Z,99870
2018-04-22T00:58:02.629Z,99878
2018-04-22T01:00:30.745Z,99869
2018-04-22T01:02:58.901Z,99869
2018-04-22T01:05:27.784Z,99866
2018-04-22T01:07:55.895Z,99861
2018-04-22T01:10:24.029Z,99859
2018-04-22T01:12:52.261Z,99858
2018-04-22T01:15:20.384Z,99855
2018-04-22T01:17:48.521Z,99856
2018-04-22T01:20:16.660Z,99860
2018-04-22T01:22:45.546Z,99847
2018-04-22T01:25:13.670Z,99853
2018-04-22T01:27:41.825Z,99854
2018-04-22T01:30:10.717Z,99854
2018-04-22T01:32:39.617Z,99847
2018-04-22T01:35:08.502Z,99848
2018-04-22T01:37:37.387Z,99846
2018-04-22T01:40:05.491Z,99847
2018-04-22T01:42:34.393Z,99848
2018-04-22T01:45:02.508Z,99850
2018-04-22T01:47:30.622Z,99849
2018-04-22T01:49:59.509Z,99848
2018-04-22T01:52:27.641Z,99844
2018-04-22T01:54:55.765Z,99843
2018-04-22T01:57:23.885Z,99853
2018-04-22T01:59:52.011Z,99841
2018-04-22T02:02:20.146Z,99842
2018-04-22T02:04:48.248Z,99844
2018-04-22T02:07:16.368Z,99845
2018-04-22T02:09:45.259Z,99836
2018-04-22T02:12:14.155Z,99835
2018-04-22T02:14:43.045Z,99847
2018-04-22T02:17:11.978Z,99842
2018-04-22T02:19:40.099Z,99837
2018-04-22T02:22:08.240Z,99838
2018-04-22T02:24:36.365Z,99842
2018-04-22T02:27:05.254Z,99839
2018-04-22T02:29:34.154Z,99833
2018-04-22T02:32:03.029Z,99832
2018-04-22T02:34:31.152Z,99827
2018-04-22T02:36:59.277Z,99818
2018-04-22T02:39:27.425Z,99823
2018-04-22T02:41:55.532Z,99823
2018-04-22T02:44:23.650Z,99817
2018-04-22T02:46:52.525Z,99813
2018-04-22T02:49:21.437Z,99812
2018-04-22T02:51:49.558Z,99797
2018-04-22T02:54:17.709Z,99807
2018-04-22T02:56:45.831Z,99807
2018-04-22T02:59:13.938Z,99800
2018-04-22T03:01:42.084Z,99797
2018-04-22T03:04:10.200Z,99803
2018-04-22T03:06:39.090Z,99804
2018-04-22T03:09:07.971Z,99802
2018-04-22T03:11:36.873Z,99794
2018-04-22T03:14:05.750Z,99790
2018-04-22T03:16:35.369Z,99790
2018-04-22T03:19:04.257Z,99791
2018-04-22T03:21:33.139Z,99788
2018-04-22T03:24:01.256Z,99796
2018-04-22T03:26:30.144Z,99787
2018-04-22T03:28:59.025Z,99789
2018-04-22T03:31:27.154Z,99789
2018-04-22T03:33:55.303Z,99791
2018-04-22T03:36:24.183Z,99785
2018-04-22T03:38:53.089Z,99787
2018-04-22T03:41:21.971Z,99782
2018-04-22T03:43:50.857Z,99784
2018-04-22T03:46:18.991Z,99788
2018-04-22T03:48:47.117Z,99784
2018-04-22T03:51:15.308Z,99792
2018-04-22T03:53:44.192Z,99781
2018-04-22T03:56:12.334Z,99784
2018-04-22T03:58:40.449Z,99788
2018-04-22T04:01:08.573Z,99791
2018-04-22T04:03:36.707Z,99786
2018-04-22T04:06:05.582Z,99781
2018-04-22T04:08:33.702Z,99788
2018-04-22T04:11:01.841Z,99789
2018-04-22T04:13:29.962Z,99780
2018-04-22T04:15:58.068Z,99779
2018-04-22T04:19:01.728Z,99783
2018-04-22T04:21:47.761Z,99788
2018-04-22T04:27:45.036Z,99796
2018-04-22T04:30:13.919Z,99796
2018-04-22T04:32:42.068Z,99792
2018-04-22T04:35:10.193Z,99790
2018-04-22T04:37:39.106Z,99796
2018-04-22T04:40:07.237Z,99792
2018-04-22T04:42:35.362Z,99788
2018-04-22T04:45:03.499Z,99787
2018-04-22T04:47:32.373Z,99776
2018-04-22T04:50:00.484Z,99781
2018-04-22T04:52:29.374Z,99786
2018-04-22T04:54:58.249Z,99781
2018-04-22T04:57:26.415Z,99786
2018-04-22T04:59:54.586Z,99784
2018-04-22T05:02:22.730Z,99794
2018-04-22T05:04:50.845Z,99787
2018-04-22T05:07:18.976Z,99788
2018-04-22T05:09:47.095Z,99787
2018-04-22T05:12:15.197Z,99785
2018-04-22T05:14:43.335Z,99793
2018-04-22T05:17:11.437Z,99798
2018-04-22T05:19:39.584Z,99799
2018-04-22T05:22:07.689Z,99802
2018-04-22T05:24:35.814Z,99800
2018-04-22T05:27:03.938Z,99803
2018-04-22T05:29:32.087Z,99803
2018-04-22T05:32:00.233Z,99800
2018-04-22T05:34:29.118Z,99804
2018-04-22T05:36:57.259Z,99800
2018-04-22T05:39:25.372Z,99798
2018-04-22T05:41:53.520Z,99806
2018-04-22T05:44:22.423Z,99800
2018-04-22T05:46:50.555Z,99800
2018-04-22T05:49:18.669Z,99801
2018-04-22T05:51:46.805Z,99791
2018-04-22T05:54:14.918Z,99789
2018-04-22T05:56:43.053Z,99782
2018-04-22T05:59:11.929Z,99784
2018-04-22T06:01:40.058Z,99781
2018-04-22T06:04:08.174Z,99783
2018-04-22T06:06:36.291Z,99781
2018-04-22T06:09:04.431Z,99775
2018-04-22T06:11:32.601Z,99777
2018-04-22T06:14:00.739Z,99779
2018-04-22T06:16:28.932Z,99782
2018-04-22T06:18:57.057Z,99774
2018-04-22T06:21:25.955Z,99765
2018-04-22T06:23:54.846Z,99767
2018-04-22T06:26:23.725Z,99770
2018-04-22T06:28:51.846Z,99759
2018-04-22T06:31:19.975Z,99769
2018-04-22T06:33:48.114Z,99769
2018-04-22T06:36:16.265Z,99761
2018-04-22T06:38:45.134Z,99763
2018-04-22T06:41:14.046Z,99758
2018-04-22T06:43:42.929Z,99757
2018-04-22T06:46:11.117Z,99752
2018-04-22T06:48:39.207Z,99761
2018-04-22T06:51:07.333Z,99758
2018-04-22T06:53:35.573Z,99749
2018-04-22T06:56:03.682Z,99752
2018-04-22T06:58:31.824Z,99751
2018-04-22T07:00:59.947Z,99749
2018-04-22T07:03:28.102Z,99751
2018-04-22T07:05:56.220Z,99751
2018-04-22T07:08:24.334Z,99747
2018-04-22T07:10:52.473Z,99744
2018-04-22T07:13:20.587Z,99745
2018-04-22T07:15:48.729Z,99747
2018-04-22T07:18:16.844Z,99756
2018-04-22T07:20:44.959Z,99750
2018-04-22T07:23:13.089Z,99746
2018-04-22T07:25:41.211Z,99743
2018-04-22T07:28:09.342Z,99750
2018-04-22T07:30:37.458Z,99745
2018-04-22T07:33:05.582Z,99746
2018-04-22T07:35:34.480Z,99740
2018-04-22T07:38:03.363Z,99740
2018-04-22T07:40:31.513Z,99746
2018-04-22T07:43:01.444Z,99738
2018-04-22T07:45:30.150Z,99741
2018-04-22T07:47:58.295Z,99735
2018-04-22T07:50:26.417Z,99732
2018-04-22T07:52:55.302Z,99738
2018-04-22T07:55:23.454Z,99728
2018-04-22T07:57:51.597Z,99736
2018-04-22T08:00:19.712Z,99739
2018-04-22T08:02:47.853Z,99732
2018-04-22T08:05:15.988Z,99730
2018-04-22T08:07:44.125Z,99736
2018-04-22T08:10:12.263Z,99719
2018-04-22T08:12:41.153Z,99731
2018-04-22T08:15:10.032Z,99733
2018-04-22T08:17:38.149Z,99731
2018-04-22T08:20:06.282Z,99720
2018-04-22T08:22:34.384Z,99719
2018-04-22T08:25:03.283Z,99717
2018-04-22T08:27:32.181Z,99712
2018-04-22T08:30:00.304Z,99717
2018-04-22T08:32:28.442Z,99723
2018-04-22T08:34:56.559Z,99718
2018-04-22T08:37:24.683Z,99724
2018-04-22T08:39:53.559Z,99715
2018-04-22T08:42:22.465Z,99717
2018-04-22T08:44:51.346Z,99718
2018-04-22T08:47:20.256Z,99729
2018-04-22T08:49:49.127Z,99728
2018-04-22T08:52:17.253Z,99725
2018-04-22T08:54:45.382Z,99716
2018-04-22T08:57:13.534Z,99722
2018-04-22T08:59:41.658Z,99715
2018-04-22T09:02:10.542Z,99717
2018-04-22T09:04:39.441Z,99714
2018-04-22T09:07:07.543Z,99717
2018-04-22T09:09:35.662Z,99707
2018-04-22T09:12:03.759Z,99716
2018-04-22T09:14:31.885Z,99709
2018-04-22T09:16:59.995Z,99706
2018-04-22T09:19:28.126Z,99706
2018-04-22T09:21:56.266Z,99705
2018-04-22T09:24:24.374Z,99707
2018-04-22T09:26:53.260Z,99702
2018-04-22T09:29:22.132Z,99704
2018-04-22T09:31:51.763Z,99710
2018-04-22T09:34:20.645Z,99701
2018-04-22T09:36:49.537Z,99704
2018-04-22T09:39:18.428Z,99698
2018-04-22T09:41:46.573Z,99697
2018-04-22T09:44:14.702Z,99690
2018-04-22T09:46:43.588Z,99694
2018-04-22T09:49:12.733Z,99689
2018-04-22T09:51:41.687Z,99686
2018-04-22T09:54:10.572Z,99670
2018-04-22T09:56:40.553Z,99677
2018-04-22T09:59:08.774Z,99670
2018-04-22T10:01:37.022Z,99672
2018-04-22T10:04:11.092Z,99662
2018-04-22T10:06:39.993Z,99659
2018-04-22T10:09:08.115Z,99656
2018-04-22T10:11:36.235Z,99655
2018-04-22T10:14:05.126Z,99645
2018-04-22T10:16:34.028Z,99648
2018-04-22T10:19:02.905Z,99643
2018-04-22T10:21:31.124Z,99642
2018-04-22T10:23:59.237Z,99642
2018-04-22T10:26:27.362Z,99641
2018-04-22T10:28:56.246Z,99623
2018-04-22T10:31:25.114Z,99632
2018-04-22T10:33:53.230Z,99627
2018-04-22T10:36:21.405Z,99628
2018-04-22T10:38:49.537Z,99626
2018-04-22T10:41:17.644Z,99617
2018-04-22T10:43:46.513Z,99621
2018-04-22T10:46:14.636Z,99611
2018-04-22T10:48:42.757Z,99610
2018-04-22T10:51:10.889Z,99607
2018-04-22T10:53:38.998Z,99611
2018-04-22T10:56:07.130Z,99602
2018-04-22T10:58:36.018Z,99606
2018-04-22T11:01:04.894Z,99600
2018-04-22T11:03:33.037Z,99600
2018-04-22T11:06:01.161Z,99603
2018-04-22T11:08:29.281Z,99598
2018-04-22T11:10:57.381Z,99591
2018-04-22T11:13:25.509Z,99587
2018-04-22T11:15:54.390Z,99590
2018-04-22T11:18:22.518Z,99594
2018-04-22T11:20:50.623Z,99596
2018-04-22T11:23:18.737Z,99593
2018-04-22T11:25:47.632Z,99590
2018-04-22T11:28:15.795Z,99584
2018-04-22T11:30:44.681Z,99578
2018-04-22T11:33:12.805Z,99579
2018-04-22T11:35:40.944Z,99575
2018-04-22T11:38:09.053Z,99569
2018-04-22T11:40:37.188Z,99576
2018-04-22T11:43:05.670Z,99578
2018-04-22T11:45:33.958Z,99582
2018-04-22T11:48:02.094Z,99575
2018-04-22T11:50:30.244Z,99578
2018-04-22T11:52:58.358Z,99571
2018-04-22T11:58:57.312Z,99570
2018-04-22T12:01:25.426Z,99550
2018-04-22T12:03:53.553Z,99568
2018-04-22T12:06:21.670Z,99564
2018-04-22T12:08:49.792Z,99560
2018-04-22T12:11:18.682Z,99565
2018-04-22T12:13:47.571Z,99564
2018-04-22T12:16:15.669Z,99549
2018-04-22T12:18:44.583Z,99553
2018-04-22T12:21:12.684Z,99546
2018-04-22T12:23:40.796Z,99544
2018-04-22T12:26:09.709Z,99544
2018-04-22T12:28:38.598Z,99543
2018-04-22T12:31:06.737Z,99535
2018-04-22T12:33:34.855Z,99536
2018-04-22T12:36:03.802Z,99534
2018-04-22T12:38:31.916Z,99520
2018-04-22T12:41:00.794Z,99526
2018-04-22T12:43:29.695Z,99518
2018-04-22T12:45:57.813Z,99514
2018-04-22T12:48:26.168Z,99520
2018-04-22T12:50:55.049Z,99514
2018-04-22T12:53:23.187Z,99517
2018-04-22T12:55:51.433Z,99517
2018-04-22T12:58:20.313Z,99515
2018-04-22T13:00:49.193Z,99513
2018-04-22T13:03:17.372Z,99512
2018-04-22T13:05:45.478Z,99502
2018-04-22T13:08:14.348Z,99494
2018-04-22T13:10:42.470Z,99501
2018-04-22T13:13:10.565Z,99498
2018-04-22T13:15:38.698Z,99492
2018-04-22T13:18:07.634Z,99486
2018-04-22T13:20:35.748Z,99484
2018-04-22T13:23:04.630Z,99491
2018-04-22T13:25:32.768Z,99481
2018-04-22T13:28:00.885Z,99480
2018-04-22T13:30:29.010Z,99475
2018-04-22T13:32:57.112Z,99474
2018-04-22T13:35:25.292Z,99473
2018-04-22T13:37:53.429Z,99463
2018-04-22T13:40:22.298Z,99467
2018-04-22T13:42:50.415Z,99467
2018-04-22T13:45:18.594Z,99459
2018-04-22T13:47:46.716Z,99458
2018-04-22T13:50:14.822Z,99451
2018-04-22T13:52:43.019Z,99449
2018-04-22T13:55:11.894Z,99444
2018-04-22T13:57:40.769Z,99438
2018-04-22T14:00:08.963Z,99441
2018-04-22T14:02:37.066Z,99428
2018-04-22T14:05:05.346Z,99430
2018-04-22T14:07:34.213Z,99427
2018-04-22T14:10:02.345Z,99423
2018-04-22T14:12:30.447Z,99424
2018-04-22T14:14:58.574Z,99425
2018-04-22T14:17:26.683Z,99412
2018-04-22T14:19:54.895Z,99412
2018-04-22T14:22:22.954Z,99419
2018-04-22T14:24:51.066Z,99413
2018-04-22T14:27:19.961Z,99409
2018-04-22T14:29:48.850Z,99402
2018-04-22T14:32:17.069Z,99398
2018-04-22T14:34:45.209Z,99397
2018-04-22T14:37:13.311Z,99398
2018-04-22T14:39:41.431Z,99388
2018-04-22T14:42:09.533Z,99386
2018-04-22T14:44:55.669Z,99382
2018-04-22T14:47:23.782Z,99376
2018-04-22T14:49:51.902Z,99376
2018-04-22T14:52:20.771Z,99371
2018-04-22T14:54:48.909Z,99377
2018-04-22T14:57:17.004Z,99367
2018-04-22T14:59:45.128Z,99375
2018-04-22T15:02:14.009Z,99370
2018-04-22T15:04:42.892Z,99364
2018-04-22T15:07:11.035Z,99362
2018-04-22T15:09:39.140Z,99364
2018-04-22T15:12:07.274Z,99356
2018-04-22T15:14:35.401Z,99352
2018-04-22T15:17:03.527Z,99350
2018-04-22T15:19:31.668Z,99351
2018-04-22T15:22:00.580Z,99351
2018-04-22T15:24:29.448Z,99352
2018-04-22T15:26:57.622Z,99340
2018-04-22T15:29:25.766Z,99340
2018-04-22T15:31:53.904Z,99339
2018-04-22T15:34:22.830Z,99340
2018-04-22T15:36:50.982Z,99339
2018-04-22T15:39:19.138Z,99340
2018-04-22T15:41:47.253Z,99330
2018-04-22T15:44:15.373Z,99332
2018-04-22T15:46:43.549Z,99329
2018-04-22T15:49:11.789Z,99327
2018-04-22T15:51:39.981Z,99325
2018-04-22T15:54:08.852Z,99321
2018-04-22T15:56:36.974Z,99317
2018-04-22T15:59:05.128Z,99310
2018-04-22T16:01:33.241Z,99308
2018-04-22T16:04:01.401Z,99310
2018-04-22T16:06:29.518Z,99300
2018-04-22T16:08:58.412Z,99300
2018-04-22T16:11:27.288Z,99306
2018-04-22T16:13:55.401Z,99298
2018-04-22T16:16:23.525Z,99298
2018-04-22T16:18:51.647Z,99299
2018-04-22T16:21:20.635Z,99299
2018-04-22T16:23:49.530Z,99296
2018-04-22T16:26:18.448Z,99305
2018-04-22T16:28:46.564Z,99310
2018-04-22T16:31:14.695Z,99310
2018-04-22T16:33:42.815Z,99306
2018-04-22T16:36:10.920Z,99304
2018-04-22T16:38:39.115Z,99306
2018-04-22T16:41:08.019Z,99312
2018-04-22T16:43:36.904Z,99313
2018-04-22T16:46:05.796Z,99305
2018-04-22T16:48:34.716Z,99293
2018-04-22T16:51:02.829Z,99291
2018-04-22T16:53:30.945Z,99290
2018-04-22T16:55:59.826Z,99288
2018-04-22T16:58:27.967Z,99288
2018-04-22T17:00:56.075Z,99290
2018-04-22T17:03:24.305Z,99282
2018-04-22T17:05:52.444Z,99289
2018-04-22T17:08:20.560Z,99285
2018-04-22T17:10:48.735Z,99289
2018-04-22T17:13:16.853Z,99292
2018-04-22T17:15:44.991Z,99293
2018-04-22T17:18:13.111Z,99300
2018-04-22T17:20:41.240Z,99295
2018-04-22T17:23:09.347Z,99290
2018-04-22T17:25:38.263Z,99300
2018-04-22T17:28:06.386Z,99300
2018-04-22T17:30:34.517Z,99291
2018-04-22T17:33:02.636Z,99294
2018-04-22T17:35:30.829Z,99292
2018-04-22T17:37:58.966Z,99288
2018-04-22T17:40:27.086Z,99286
2018-04-22T17:42:55.203Z,99283
2018-04-22T17:45:23.309Z,99272
2018-04-22T17:47:52.224Z,99277
2018-04-22T17:50:20.340Z,99277
2018-04-22T17:52:48.447Z,99275
2018-04-22T17:55:16.569Z,99270
2018-04-22T17:57:44.676Z,99276
2018-04-22T18:00:12.785Z,99281
2018-04-22T18:02:41.675Z,99278
2018-04-22T18:05:09.800Z,99279
2018-04-22T18:07:37.957Z,99273
2018-04-22T18:10:06.852Z,99271
2018-04-22T18:12:34.957Z,99281
2018-04-22T18:15:03.128Z,99279
2018-04-22T18:17:31.258Z,99281
2018-04-22T18:19:59.358Z,99280
2018-04-22T18:22:28.385Z,99275
2018-04-22T18:24:56.480Z,99275
2018-04-22T18:27:24.628Z,99278
2018-04-22T18:29:52.736Z,99271
2018-04-22T18:32:20.869Z,99281
2018-04-22T18:34:49.000Z,99281
2018-04-22T18:37:17.111Z,99275
2018-04-22T18:39:45.990Z,99274
2018-04-22T18:42:14.341Z,99283
2018-04-22T18:44:43.252Z,99280
2018-04-22T18:47:11.373Z,99275
2018-04-22T18:49:39.514Z,99274
2018-04-22T18:52:07.635Z,99274
2018-04-22T18:54:35.736Z,99283
2018-04-22T18:57:03.858Z,99272
2018-04-22T18:59:32.751Z,99281
2018-04-22T19:02:00.886Z,99256
2018-04-22T19:04:29.004Z,99270
2018-04-22T19:06:57.142Z,99266
2018-04-22T19:09:25.264Z,99271
2018-04-22T19:11:54.162Z,99272
2018-04-22T19:14:23.045Z,99274
2018-04-22T19:16:51.157Z,99276
2018-04-22T19:19:19.278Z,99268
2018-04-22T19:21:47.402Z,99268
2018-04-22T19:24:16.315Z,99264
2018-04-22T19:26:44.432Z,99261
2018-04-22T19:29:12.550Z,99259
2018-04-22T19:31:41.457Z,99266
2018-04-22T19:34:09.563Z,99259
2018-04-22T19:36:37.694Z,99262
2018-04-22T19:39:06.586Z,99275
2018-04-22T19:41:35.481Z,99270
2018-04-22T19:44:04.419Z,99271
2018-04-22T19:46:32.537Z,99267
2018-04-22T19:49:00.666Z,99271
2018-04-22T19:51:28.774Z,99274
2018-04-22T19:53:56.902Z,99271
2018-04-22T19:56:25.774Z,99270
2018-04-22T19:58:53.894Z,99267
2018-04-22T20:01:22.014Z,99262
2018-04-22T20:03:50.182Z,99277
2018-04-22T20:06:18.286Z,99264
2018-04-22T20:08:47.165Z,99260
2018-04-22T20:11:15.296Z,99260
2018-04-22T20:13:43.403Z,99270
2018-04-22T20:16:11.511Z,99263
2018-04-22T20:18:39.626Z,99258
2018-04-22T20:21:07.765Z,99255
2018-04-22T20:23:35.881Z,99257
2018-04-22T20:26:04.025Z,99255
2018-04-22T20:28:32.912Z,99264
2018-04-22T20:31:01.014Z,99258
2018-04-22T20:33:29.130Z,99260
2018-04-22T20:35:57.238Z,99260
2018-04-22T20:38:25.368Z,99259
2018-04-22T20:40:53.502Z,99255
2018-04-22T20:43:22.413Z,99254
2018-04-22T20:45:51.277Z,99251
2018-04-22T20:48:19.386Z,99255
2018-04-22T20:50:48.260Z,99256
2018-04-22T20:53:17.145Z,99249
2018-04-22T20:55:45.277Z,99249
2018-04-22T20:58:13.397Z,99252
2018-04-22T21:00:41.596Z,99250
2018-04-22T21:03:10.457Z,99241
2018-04-22T21:05:38.574Z,99246
2018-04-22T21:08:07.456Z,99244
2018-04-22T21:10:35.625Z,99247
2018-04-22T21:13:03.722Z,99243
2018-04-22T21:15:32.577Z,99247
2018-04-22T21:18:00.685Z,99243
2018-04-22T21:20:29.565Z,99247
2018-04-22T21:22:57.681Z,99254
2018-04-22T21:25:25.802Z,99252
2018-04-22T21:27:53.934Z,99249
2018-04-22T21:30:22.047Z,99244
2018-04-22T21:32:50.149Z,99245
2018-04-22T21:35:18.268Z,99241
2018-04-22T21:37:46.373Z,99241
2018-04-22T21:40:14.486Z,99234
2018-04-22T21:42:42.590Z,99231
2018-04-22T21:45:10.733Z,99235
2018-04-22T21:47:38.837Z,99231
2018-04-22T21:50:07.732Z,99242
2018-04-22T21:52:36.617Z,99240
2018-04-22T21:55:05.479Z,99248
2018-04-22T21:57:33.596Z,99247
2018-04-22T22:00:02.473Z,99252
2018-04-22T22:02:30.588Z,99246
2018-04-22T22:04:58.685Z,99253
2018-04-22T22:07:26.805Z,99246
2018-04-22T22:09:55.698Z,99239
2018-04-22T22:12:23.801Z,99240
2018-04-22T22:14:52.680Z,99241
2018-04-22T22:17:21.551Z,99235
2018-04-22T22:19:49.679Z,99232
2018-04-22T22:22:17.809Z,99225
2018-04-22T22:24:45.935Z,99226
2018-04-22T22:27:14.051Z,99221
2018-04-22T22:29:42.199Z,99231
2018-04-22T22:32:10.314Z,99223
2018-04-22T22:34:38.422Z,99219
2018-04-22T22:37:07.308Z,99222
2018-04-22T22:39:35.406Z,99219
2018-04-22T22:42:03.538Z,99222
2018-04-22T22:44:32.431Z,99224
2018-04-22T22:47:00.544Z,99230
2018-04-22T22:49:29.446Z,99236
2018-04-22T22:51:58.326Z,99240
2018-04-22T22:54:27.223Z,99270
2018-04-22T22:56:56.111Z,99274
2018-04-22T22:59:24.241Z,99287
2018-04-22T23:01:52.334Z,99308
2018-04-22T23:04:20.439Z,99269
2018-04-22T23:06:48.578Z,99291
2018-04-22T23:09:16.693Z,99308
2018-04-22T23:11:44.813Z,99300
2018-04-22T23:14:12.987Z,99298
2018-04-22T23:16:41.123Z,99291
2018-04-22T23:19:09.237Z,99289
2018-04-22T23:21:37.384Z,99285
2018-04-22T23:24:05.502Z,99281
2018-04-22T23:26:33.608Z,99284
2018-04-22T23:29:01.723Z,99279
2018-04-22T23:31:30.605Z,99276
2018-04-22T23:33:58.719Z,99273
2018-04-22T23:36:26.831Z,99273
2018-04-22T23:38:54.941Z,99272
2018-04-22T23:41:23.036Z,99280
2018-04-22T23:43:51.933Z,99277
2018-04-22T23:46:20.810Z,99259
2018-04-22T23:48:49.687Z,99260
2018-04-22T23:51:18.568Z,99261
2018-04-22T23:53:46.681Z,99265
2018-04-22T23:56:15.565Z,99264
2018-04-22T23:58:44.456Z,99260
